sensor_id;sensor_type;location;lat;lon;timestamp;P1;durP1;ratioP1;P2;durP2;ratioP2
15142;SDS011;7672;50.834;6.286;2022-12-08T00:01:21;15.47;;;11.37;;
15142;SDS011;7672;50.834;6.286;2022-12-08T00:03:53;16.47;;;10.73;;
15142;SDS011;7672;50.834;6.286;2022-12-08T00:06:32;14.00;;;11.40;;
15142;SDS011;7672;50.834;6.286;2022-12-08T00:12:11;13.70;;;10.60;;
15142;SDS011;7672;50.834;6.286;2022-12-08T00:14:43;14.47;;;10.93;;
15142;SDS011;7672;50.834;6.286;2022-12-08T00:17:13;14.47;;;11.40;;
15142;SDS011;7672;50.834;6.286;2022-12-08T00:19:45;14.73;;;10.20;;
15142;SDS011;7672;50.834;6.286;2022-12-08T00:22:13;13.63;;;10.03;;
15142;SDS011;7672;50.834;6.286;2022-12-08T00:24:40;16.20;;;11.73;;
15142;SDS011;7672;50.834;6.286;2022-12-08T00:27:11;19.20;;;10.30;;
15142;SDS011;7672;50.834;6.286;2022-12-08T00:29:44;12.40;;;9.97;;
15142;SDS011;7672;50.834;6.286;2022-12-08T00:32:11;13.87;;;10.00;;
15142;SDS011;7672;50.834;6.286;2022-12-08T00:34:38;15.23;;;10.43;;
15142;SDS011;7672;50.834;6.286;2022-12-08T00:37:05;16.17;;;10.33;;
15142;SDS011;7672;50.834;6.286;2022-12-08T00:39:31;15.17;;;10.53;;
15142;SDS011;7672;50.834;6.286;2022-12-08T00:41:58;14.27;;;10.53;;
15142;SDS011;7672;50.834;6.286;2022-12-08T00:44:38;21.27;;;10.43;;
15142;SDS011;7672;50.834;6.286;2022-12-08T00:47:05;14.27;;;10.23;;
15142;SDS011;7672;50.834;6.286;2022-12-08T00:49:32;15.00;;;10.93;;
15142;SDS011;7672;50.834;6.286;2022-12-08T00:51:59;18.37;;;11.37;;
15142;SDS011;7672;50.834;6.286;2022-12-08T00:54:26;14.80;;;10.67;;
15142;SDS011;7672;50.834;6.286;2022-12-08T00:56:53;16.73;;;10.83;;
15142;SDS011;7672;50.834;6.286;2022-12-08T00:59:19;15.70;;;11.53;;
15142;SDS011;7672;50.834;6.286;2022-12-08T01:01:46;15.30;;;9.83;;
15142;SDS011;7672;50.834;6.286;2022-12-08T01:04:15;13.73;;;10.10;;
15142;SDS011;7672;50.834;6.286;2022-12-08T01:06:44;11.37;;;9.70;;
15142;SDS011;7672;50.834;6.286;2022-12-08T01:09:12;15.53;;;9.77;;
15142;SDS011;7672;50.834;6.286;2022-12-08T01:11:41;14.80;;;9.63;;
15142;SDS011;7672;50.834;6.286;2022-12-08T01:14:09;16.50;;;10.30;;
15142;SDS011;7672;50.834;6.286;2022-12-08T01:16:37;14.43;;;8.77;;
15142;SDS011;7672;50.834;6.286;2022-12-08T01:19:06;12.57;;;8.73;;
15142;SDS011;7672;50.834;6.286;2022-12-08T01:21:38;12.57;;;9.23;;
15142;SDS011;7672;50.834;6.286;2022-12-08T01:24:06;15.03;;;8.77;;
15142;SDS011;7672;50.834;6.286;2022-12-08T01:26:37;12.67;;;7.93;;
15142;SDS011;7672;50.834;6.286;2022-12-08T01:29:04;10.53;;;8.03;;
15142;SDS011;7672;50.834;6.286;2022-12-08T01:31:30;12.70;;;8.20;;
15142;SDS011;7672;50.834;6.286;2022-12-08T01:33:57;11.87;;;8.57;;
15142;SDS011;7672;50.834;6.286;2022-12-08T01:36:25;12.17;;;8.30;;
15142;SDS011;7672;50.834;6.286;2022-12-08T01:38:56;10.87;;;8.20;;
15142;SDS011;7672;50.834;6.286;2022-12-08T01:41:27;13.67;;;7.87;;
15142;SDS011;7672;50.834;6.286;2022-12-08T01:46:49;10.93;;;7.53;;
15142;SDS011;7672;50.834;6.286;2022-12-08T01:49:20;13.33;;;7.70;;
15142;SDS011;7672;50.834;6.286;2022-12-08T01:54:57;10.03;;;7.70;;
15142;SDS011;7672;50.834;6.286;2022-12-08T01:57:38;11.13;;;8.13;;
15142;SDS011;7672;50.834;6.286;2022-12-08T02:00:14;9.77;;;7.60;;
15142;SDS011;7672;50.834;6.286;2022-12-08T02:02:51;10.07;;;7.70;;
15142;SDS011;7672;50.834;6.286;2022-12-08T02:05:24;10.23;;;8.20;;
15142;SDS011;7672;50.834;6.286;2022-12-08T02:07:56;9.57;;;7.17;;
15142;SDS011;7672;50.834;6.286;2022-12-08T02:10:27;13.47;;;7.50;;
15142;SDS011;7672;50.834;6.286;2022-12-08T02:12:56;8.53;;;7.17;;
15142;SDS011;7672;50.834;6.286;2022-12-08T02:15:30;11.80;;;7.30;;
15142;SDS011;7672;50.834;6.286;2022-12-08T02:18:55;11.43;;;6.90;;
15142;SDS011;7672;50.834;6.286;2022-12-08T02:27:58;7.10;;;5.70;;
15142;SDS011;7672;50.834;6.286;2022-12-08T02:33:57;7.93;;;6.93;;
15142;SDS011;7672;50.834;6.286;2022-12-08T02:37:03;11.60;;;7.07;;
15142;SDS011;7672;50.834;6.286;2022-12-08T02:39:52;9.73;;;7.17;;
15142;SDS011;7672;50.834;6.286;2022-12-08T02:45:08;9.80;;;6.70;;
15142;SDS011;7672;50.834;6.286;2022-12-08T02:48:15;8.53;;;6.70;;
15142;SDS011;7672;50.834;6.286;2022-12-08T02:50:42;11.87;;;7.03;;
15142;SDS011;7672;50.834;6.286;2022-12-08T02:53:09;9.80;;;6.90;;
15142;SDS011;7672;50.834;6.286;2022-12-08T03:01:30;12.03;;;7.47;;
15142;SDS011;7672;50.834;6.286;2022-12-08T03:09:59;9.23;;;7.07;;
15142;SDS011;7672;50.834;6.286;2022-12-08T03:13:11;11.03;;;8.13;;
15142;SDS011;7672;50.834;6.286;2022-12-08T03:15:43;11.50;;;7.60;;
15142;SDS011;7672;50.834;6.286;2022-12-08T03:18:13;10.57;;;7.50;;
15142;SDS011;7672;50.834;6.286;2022-12-08T03:20:44;10.27;;;7.37;;
15142;SDS011;7672;50.834;6.286;2022-12-08T03:23:13;10.87;;;7.60;;
15142;SDS011;7672;50.834;6.286;2022-12-08T03:25:48;11.60;;;7.77;;
15142;SDS011;7672;50.834;6.286;2022-12-08T03:28:24;15.03;;;7.77;;
15142;SDS011;7672;50.834;6.286;2022-12-08T03:30:52;18.40;;;9.03;;
15142;SDS011;7672;50.834;6.286;2022-12-08T03:33:25;13.27;;;9.67;;
15142;SDS011;7672;50.834;6.286;2022-12-08T03:36:03;14.47;;;9.87;;
15142;SDS011;7672;50.834;6.286;2022-12-08T03:38:40;16.63;;;10.57;;
15142;SDS011;7672;50.834;6.286;2022-12-08T03:41:10;14.40;;;10.37;;
15142;SDS011;7672;50.834;6.286;2022-12-08T03:43:45;16.13;;;10.47;;
15142;SDS011;7672;50.834;6.286;2022-12-08T03:46:19;21.93;;;12.23;;
15142;SDS011;7672;50.834;6.286;2022-12-08T03:48:47;17.70;;;11.37;;
15142;SDS011;7672;50.834;6.286;2022-12-08T03:51:14;26.97;;;13.03;;
15142;SDS011;7672;50.834;6.286;2022-12-08T03:53:41;17.23;;;12.07;;
15142;SDS011;7672;50.834;6.286;2022-12-08T03:56:16;18.90;;;12.30;;
15142;SDS011;7672;50.834;6.286;2022-12-08T03:58:58;19.70;;;12.10;;
15142;SDS011;7672;50.834;6.286;2022-12-08T04:01:26;18.00;;;12.67;;
15142;SDS011;7672;50.834;6.286;2022-12-08T04:03:53;21.47;;;13.93;;
15142;SDS011;7672;50.834;6.286;2022-12-08T04:06:20;20.70;;;13.83;;
15142;SDS011;7672;50.834;6.286;2022-12-08T04:08:48;23.33;;;14.73;;
15142;SDS011;7672;50.834;6.286;2022-12-08T04:11:16;23.00;;;14.43;;
15142;SDS011;7672;50.834;6.286;2022-12-08T04:13:44;26.27;;;14.47;;
15142;SDS011;7672;50.834;6.286;2022-12-08T04:16:19;22.17;;;13.77;;
15142;SDS011;7672;50.834;6.286;2022-12-08T04:18:50;20.13;;;14.77;;
15142;SDS011;7672;50.834;6.286;2022-12-08T04:21:17;19.87;;;13.37;;
15142;SDS011;7672;50.834;6.286;2022-12-08T04:23:44;24.67;;;13.43;;
15142;SDS011;7672;50.834;6.286;2022-12-08T04:26:12;18.57;;;12.60;;
15142;SDS011;7672;50.834;6.286;2022-12-08T04:28:39;20.57;;;12.27;;
15142;SDS011;7672;50.834;6.286;2022-12-08T04:31:06;20.40;;;11.87;;
15142;SDS011;7672;50.834;6.286;2022-12-08T04:33:33;19.87;;;12.90;;
15142;SDS011;7672;50.834;6.286;2022-12-08T04:36:01;25.63;;;13.43;;
15142;SDS011;7672;50.834;6.286;2022-12-08T04:38:29;23.53;;;13.47;;
15142;SDS011;7672;50.834;6.286;2022-12-08T04:40:56;23.03;;;13.03;;
15142;SDS011;7672;50.834;6.286;2022-12-08T04:43:23;21.50;;;13.37;;
15142;SDS011;7672;50.834;6.286;2022-12-08T04:45:50;21.57;;;12.87;;
15142;SDS011;7672;50.834;6.286;2022-12-08T04:48:17;22.20;;;12.90;;
15142;SDS011;7672;50.834;6.286;2022-12-08T04:50:44;20.37;;;12.47;;
15142;SDS011;7672;50.834;6.286;2022-12-08T04:53:11;29.57;;;12.10;;
15142;SDS011;7672;50.834;6.286;2022-12-08T04:55:40;19.97;;;11.77;;
15142;SDS011;7672;50.834;6.286;2022-12-08T04:58:13;27.07;;;13.07;;
15142;SDS011;7672;50.834;6.286;2022-12-08T05:00:43;20.67;;;11.43;;
15142;SDS011;7672;50.834;6.286;2022-12-08T05:03:12;19.40;;;10.63;;
15142;SDS011;7672;50.834;6.286;2022-12-08T05:05:40;18.40;;;11.83;;
15142;SDS011;7672;50.834;6.286;2022-12-08T05:08:08;28.63;;;14.00;;
15142;SDS011;7672;50.834;6.286;2022-12-08T05:10:36;22.60;;;12.40;;
15142;SDS011;7672;50.834;6.286;2022-12-08T05:13:03;19.47;;;11.93;;
15142;SDS011;7672;50.834;6.286;2022-12-08T05:15:30;23.70;;;13.43;;
15142;SDS011;7672;50.834;6.286;2022-12-08T05:17:56;21.90;;;12.33;;
15142;SDS011;7672;50.834;6.286;2022-12-08T05:20:23;19.37;;;11.80;;
15142;SDS011;7672;50.834;6.286;2022-12-08T05:22:50;22.73;;;11.80;;
15142;SDS011;7672;50.834;6.286;2022-12-08T05:25:17;22.17;;;12.87;;
15142;SDS011;7672;50.834;6.286;2022-12-08T05:27:43;18.63;;;11.43;;
15142;SDS011;7672;50.834;6.286;2022-12-08T05:30:10;20.33;;;11.83;;
15142;SDS011;7672;50.834;6.286;2022-12-08T05:32:37;23.87;;;12.37;;
15142;SDS011;7672;50.834;6.286;2022-12-08T05:35:04;21.77;;;11.53;;
15142;SDS011;7672;50.834;6.286;2022-12-08T05:37:32;19.40;;;11.40;;
15142;SDS011;7672;50.834;6.286;2022-12-08T05:39:58;18.30;;;11.50;;
15142;SDS011;7672;50.834;6.286;2022-12-08T05:42:26;21.83;;;12.10;;
15142;SDS011;7672;50.834;6.286;2022-12-08T05:44:52;21.27;;;11.47;;
15142;SDS011;7672;50.834;6.286;2022-12-08T05:47:19;19.80;;;12.07;;
15142;SDS011;7672;50.834;6.286;2022-12-08T05:49:46;21.93;;;13.53;;
15142;SDS011;7672;50.834;6.286;2022-12-08T05:52:12;22.47;;;12.73;;
15142;SDS011;7672;50.834;6.286;2022-12-08T05:54:41;17.43;;;11.40;;
15142;SDS011;7672;50.834;6.286;2022-12-08T05:57:09;19.30;;;10.40;;
15142;SDS011;7672;50.834;6.286;2022-12-08T05:59:35;19.70;;;11.13;;
15142;SDS011;7672;50.834;6.286;2022-12-08T06:02:03;22.40;;;10.63;;
15142;SDS011;7672;50.834;6.286;2022-12-08T06:04:30;16.50;;;10.60;;
15142;SDS011;7672;50.834;6.286;2022-12-08T06:06:57;17.37;;;11.43;;
15142;SDS011;7672;50.834;6.286;2022-12-08T06:09:24;22.37;;;11.50;;
15142;SDS011;7672;50.834;6.286;2022-12-08T06:11:50;19.67;;;10.70;;
15142;SDS011;7672;50.834;6.286;2022-12-08T06:14:17;19.30;;;11.97;;
15142;SDS011;7672;50.834;6.286;2022-12-08T06:16:44;24.83;;;11.53;;
15142;SDS011;7672;50.834;6.286;2022-12-08T06:19:11;17.43;;;11.47;;
15142;SDS011;7672;50.834;6.286;2022-12-08T06:21:38;17.97;;;11.73;;
15142;SDS011;7672;50.834;6.286;2022-12-08T06:24:05;18.90;;;12.33;;
15142;SDS011;7672;50.834;6.286;2022-12-08T06:26:32;20.60;;;11.63;;
15142;SDS011;7672;50.834;6.286;2022-12-08T06:29:01;18.23;;;11.77;;
15142;SDS011;7672;50.834;6.286;2022-12-08T06:31:27;17.73;;;11.53;;
15142;SDS011;7672;50.834;6.286;2022-12-08T06:33:54;20.93;;;11.20;;
15142;SDS011;7672;50.834;6.286;2022-12-08T06:36:23;16.70;;;10.93;;
15142;SDS011;7672;50.834;6.286;2022-12-08T06:38:52;17.40;;;11.27;;
15142;SDS011;7672;50.834;6.286;2022-12-08T06:41:20;18.20;;;11.33;;
15142;SDS011;7672;50.834;6.286;2022-12-08T06:43:47;16.73;;;10.77;;
15142;SDS011;7672;50.834;6.286;2022-12-08T06:46:15;19.90;;;11.47;;
15142;SDS011;7672;50.834;6.286;2022-12-08T06:48:44;19.57;;;11.73;;
15142;SDS011;7672;50.834;6.286;2022-12-08T06:51:12;16.37;;;11.47;;
15142;SDS011;7672;50.834;6.286;2022-12-08T06:53:45;21.07;;;12.17;;
15142;SDS011;7672;50.834;6.286;2022-12-08T06:56:13;19.73;;;10.80;;
15142;SDS011;7672;50.834;6.286;2022-12-08T06:58:41;21.63;;;11.40;;
15142;SDS011;7672;50.834;6.286;2022-12-08T07:01:15;17.50;;;12.07;;
15142;SDS011;7672;50.834;6.286;2022-12-08T07:03:42;19.90;;;11.00;;
15142;SDS011;7672;50.834;6.286;2022-12-08T07:06:13;19.70;;;11.47;;
15142;SDS011;7672;50.834;6.286;2022-12-08T07:08:43;22.30;;;11.47;;
15142;SDS011;7672;50.834;6.286;2022-12-08T07:11:10;19.57;;;11.37;;
15142;SDS011;7672;50.834;6.286;2022-12-08T07:13:46;18.33;;;11.10;;
15142;SDS011;7672;50.834;6.286;2022-12-08T07:16:13;18.67;;;10.37;;
15142;SDS011;7672;50.834;6.286;2022-12-08T07:18:40;16.13;;;9.93;;
15142;SDS011;7672;50.834;6.286;2022-12-08T07:21:11;18.53;;;10.97;;
15142;SDS011;7672;50.834;6.286;2022-12-08T07:23:44;16.00;;;9.87;;
15142;SDS011;7672;50.834;6.286;2022-12-08T07:26:19;13.60;;;9.63;;
15142;SDS011;7672;50.834;6.286;2022-12-08T07:28:46;19.97;;;10.27;;
15142;SDS011;7672;50.834;6.286;2022-12-08T07:31:17;18.00;;;10.60;;
15142;SDS011;7672;50.834;6.286;2022-12-08T07:33:47;18.73;;;11.43;;
15142;SDS011;7672;50.834;6.286;2022-12-08T07:36:15;14.03;;;9.90;;
15142;SDS011;7672;50.834;6.286;2022-12-08T07:38:42;16.63;;;10.60;;
15142;SDS011;7672;50.834;6.286;2022-12-08T07:41:12;15.17;;;10.23;;
15142;SDS011;7672;50.834;6.286;2022-12-08T07:43:48;14.20;;;10.37;;
15142;SDS011;7672;50.834;6.286;2022-12-08T07:46:18;24.13;;;11.37;;
15142;SDS011;7672;50.834;6.286;2022-12-08T07:48:47;18.20;;;9.77;;
15142;SDS011;7672;50.834;6.286;2022-12-08T07:51:15;13.63;;;9.87;;
15142;SDS011;7672;50.834;6.286;2022-12-08T07:53:42;17.70;;;11.03;;
15142;SDS011;7672;50.834;6.286;2022-12-08T07:56:19;20.40;;;11.80;;
15142;SDS011;7672;50.834;6.286;2022-12-08T07:58:46;17.40;;;10.77;;
15142;SDS011;7672;50.834;6.286;2022-12-08T08:01:20;21.77;;;10.90;;
15142;SDS011;7672;50.834;6.286;2022-12-08T08:03:54;19.67;;;9.77;;
15142;SDS011;7672;50.834;6.286;2022-12-08T08:06:27;12.30;;;8.47;;
15142;SDS011;7672;50.834;6.286;2022-12-08T08:08:56;12.73;;;9.13;;
15142;SDS011;7672;50.834;6.286;2022-12-08T08:12:14;14.97;;;9.70;;
15142;SDS011;7672;50.834;6.286;2022-12-08T08:15:11;14.53;;;9.80;;
15142;SDS011;7672;50.834;6.286;2022-12-08T08:17:38;17.73;;;11.27;;
15142;SDS011;7672;50.834;6.286;2022-12-08T08:20:06;14.00;;;10.43;;
15142;SDS011;7672;50.834;6.286;2022-12-08T08:22:33;18.03;;;11.73;;
15142;SDS011;7672;50.834;6.286;2022-12-08T08:25:01;18.97;;;12.10;;
15142;SDS011;7672;50.834;6.286;2022-12-08T08:27:28;19.60;;;12.20;;
15142;SDS011;7672;50.834;6.286;2022-12-08T08:29:55;15.20;;;11.00;;
15142;SDS011;7672;50.834;6.286;2022-12-08T08:32:22;14.17;;;10.93;;
15142;SDS011;7672;50.834;6.286;2022-12-08T08:34:49;18.03;;;11.33;;
15142;SDS011;7672;50.834;6.286;2022-12-08T08:37:17;16.10;;;10.17;;
15142;SDS011;7672;50.834;6.286;2022-12-08T08:39:45;13.97;;;8.37;;
15142;SDS011;7672;50.834;6.286;2022-12-08T08:42:13;13.80;;;7.97;;
15142;SDS011;7672;50.834;6.286;2022-12-08T08:44:39;10.73;;;7.67;;
15142;SDS011;7672;50.834;6.286;2022-12-08T08:47:06;10.40;;;6.70;;
15142;SDS011;7672;50.834;6.286;2022-12-08T08:49:34;10.37;;;7.70;;
15142;SDS011;7672;50.834;6.286;2022-12-08T08:52:09;11.47;;;7.63;;
15142;SDS011;7672;50.834;6.286;2022-12-08T08:55:06;9.80;;;7.73;;
15142;SDS011;7672;50.834;6.286;2022-12-08T08:58:48;10.40;;;8.10;;
15142;SDS011;7672;50.834;6.286;2022-12-08T09:01:26;10.33;;;8.00;;
15142;SDS011;7672;50.834;6.286;2022-12-08T09:03:56;13.77;;;8.00;;
15142;SDS011;7672;50.834;6.286;2022-12-08T09:06:23;13.03;;;7.77;;
15142;SDS011;7672;50.834;6.286;2022-12-08T09:08:53;11.47;;;8.40;;
15142;SDS011;7672;50.834;6.286;2022-12-08T09:11:20;11.03;;;8.97;;
15142;SDS011;7672;50.834;6.286;2022-12-08T09:13:48;15.17;;;9.67;;
15142;SDS011;7672;50.834;6.286;2022-12-08T09:16:17;12.97;;;9.47;;
15142;SDS011;7672;50.834;6.286;2022-12-08T09:18:45;14.70;;;9.40;;
15142;SDS011;7672;50.834;6.286;2022-12-08T09:21:14;16.53;;;10.77;;
15142;SDS011;7672;50.834;6.286;2022-12-08T09:23:48;16.97;;;10.60;;
15142;SDS011;7672;50.834;6.286;2022-12-08T09:26:18;15.57;;;9.10;;
15142;SDS011;7672;50.834;6.286;2022-12-08T09:28:48;14.40;;;10.53;;
15142;SDS011;7672;50.834;6.286;2022-12-08T09:31:16;15.90;;;11.20;;
15142;SDS011;7672;50.834;6.286;2022-12-08T09:33:46;15.33;;;10.67;;
15142;SDS011;7672;50.834;6.286;2022-12-08T09:36:16;15.30;;;10.77;;
15142;SDS011;7672;50.834;6.286;2022-12-08T09:38:44;15.23;;;10.60;;
15142;SDS011;7672;50.834;6.286;2022-12-08T09:41:31;20.37;;;10.47;;
15142;SDS011;7672;50.834;6.286;2022-12-08T09:47:21;17.57;;;11.13;;
15142;SDS011;7672;50.834;6.286;2022-12-08T09:50:34;17.80;;;11.07;;
15142;SDS011;7672;50.834;6.286;2022-12-08T09:53:28;18.03;;;11.43;;
15142;SDS011;7672;50.834;6.286;2022-12-08T09:56:20;16.60;;;10.67;;
15142;SDS011;7672;50.834;6.286;2022-12-08T09:58:57;16.07;;;10.43;;
15142;SDS011;7672;50.834;6.286;2022-12-08T10:01:52;15.30;;;10.57;;
15142;SDS011;7672;50.834;6.286;2022-12-08T10:04:25;14.80;;;9.70;;
15142;SDS011;7672;50.834;6.286;2022-12-08T10:09:47;17.60;;;10.33;;
15142;SDS011;7672;50.834;6.286;2022-12-08T10:12:29;17.10;;;9.87;;
15142;SDS011;7672;50.834;6.286;2022-12-08T10:18:02;14.63;;;9.07;;
15142;SDS011;7672;50.834;6.286;2022-12-08T10:20:43;17.17;;;9.53;;
15142;SDS011;7672;50.834;6.286;2022-12-08T10:26:01;17.27;;;9.47;;
15142;SDS011;7672;50.834;6.286;2022-12-08T10:28:32;13.37;;;9.63;;
15142;SDS011;7672;50.834;6.286;2022-12-08T10:31:15;15.03;;;9.67;;
15142;SDS011;7672;50.834;6.286;2022-12-08T10:33:48;17.00;;;10.13;;
15142;SDS011;7672;50.834;6.286;2022-12-08T10:42:16;14.27;;;8.73;;
15142;SDS011;7672;50.834;6.286;2022-12-08T10:44:54;11.63;;;9.27;;
15142;SDS011;7672;50.834;6.286;2022-12-08T10:47:29;14.00;;;9.23;;
15142;SDS011;7672;50.834;6.286;2022-12-08T10:52:55;20.10;;;9.00;;
15142;SDS011;7672;50.834;6.286;2022-12-08T10:58:39;13.90;;;8.80;;
15142;SDS011;7672;50.834;6.286;2022-12-08T11:03:55;14.00;;;7.77;;
15142;SDS011;7672;50.834;6.286;2022-12-08T11:09:00;12.67;;;7.17;;
15142;SDS011;7672;50.834;6.286;2022-12-08T11:11:43;16.20;;;7.20;;
15142;SDS011;7672;50.834;6.286;2022-12-08T11:14:55;13.50;;;7.10;;
15142;SDS011;7672;50.834;6.286;2022-12-08T11:20:36;10.63;;;7.80;;
15142;SDS011;7672;50.834;6.286;2022-12-08T11:22:50;10.07;;;7.40;;
15142;SDS011;7672;50.834;6.286;2022-12-08T11:25:23;15.33;;;8.43;;
15142;SDS011;7672;50.834;6.286;2022-12-08T11:27:58;11.27;;;7.63;;
15142;SDS011;7672;50.834;6.286;2022-12-08T11:30:28;13.60;;;8.23;;
15142;SDS011;7672;50.834;6.286;2022-12-08T11:33:16;13.90;;;7.73;;
15142;SDS011;7672;50.834;6.286;2022-12-08T11:35:51;9.30;;;7.03;;
15142;SDS011;7672;50.834;6.286;2022-12-08T11:38:28;10.93;;;7.83;;
15142;SDS011;7672;50.834;6.286;2022-12-08T11:41:06;10.20;;;6.77;;
15142;SDS011;7672;50.834;6.286;2022-12-08T11:49:52;10.93;;;7.60;;
15142;SDS011;7672;50.834;6.286;2022-12-08T11:52:33;11.37;;;6.80;;
15142;SDS011;7672;50.834;6.286;2022-12-08T12:00:43;10.23;;;7.60;;
15142;SDS011;7672;50.834;6.286;2022-12-08T12:03:16;16.27;;;7.73;;
15142;SDS011;7672;50.834;6.286;2022-12-08T12:06:01;11.77;;;7.60;;
15142;SDS011;7672;50.834;6.286;2022-12-08T12:09:32;13.67;;;7.10;;
15142;SDS011;7672;50.834;6.286;2022-12-08T12:18:15;8.70;;;6.83;;
15142;SDS011;7672;50.834;6.286;2022-12-08T12:21:32;14.40;;;6.50;;
15142;SDS011;7672;50.834;6.286;2022-12-08T12:24:23;10.80;;;7.47;;
15142;SDS011;7672;50.834;6.286;2022-12-08T12:27:04;11.27;;;6.90;;
15142;SDS011;7672;50.834;6.286;2022-12-08T12:29:49;11.40;;;6.30;;
15142;SDS011;7672;50.834;6.286;2022-12-08T12:32:25;15.60;;;7.60;;
15142;SDS011;7672;50.834;6.286;2022-12-08T12:35:12;11.73;;;6.10;;
15142;SDS011;7672;50.834;6.286;2022-12-08T12:38:05;9.53;;;6.53;;
15142;SDS011;7672;50.834;6.286;2022-12-08T12:41:08;10.23;;;6.17;;
15142;SDS011;7672;50.834;6.286;2022-12-08T12:52:03;10.90;;;5.67;;
15142;SDS011;7672;50.834;6.286;2022-12-08T12:54:42;8.97;;;5.80;;
15142;SDS011;7672;50.834;6.286;2022-12-08T12:57:36;9.80;;;5.73;;
15142;SDS011;7672;50.834;6.286;2022-12-08T13:00:19;12.40;;;5.80;;
15142;SDS011;7672;50.834;6.286;2022-12-08T13:02:53;10.00;;;5.50;;
15142;SDS011;7672;50.834;6.286;2022-12-08T13:05:24;9.80;;;5.63;;
15142;SDS011;7672;50.834;6.286;2022-12-08T13:08:15;10.70;;;5.97;;
15142;SDS011;7672;50.834;6.286;2022-12-08T13:10:55;9.20;;;5.63;;
15142;SDS011;7672;50.834;6.286;2022-12-08T13:13:37;8.50;;;6.00;;
15142;SDS011;7672;50.834;6.286;2022-12-08T13:16:30;8.63;;;5.40;;
15142;SDS011;7672;50.834;6.286;2022-12-08T13:19:02;7.37;;;5.30;;
15142;SDS011;7672;50.834;6.286;2022-12-08T13:21:39;10.07;;;6.17;;
15142;SDS011;7672;50.834;6.286;2022-12-08T13:24:14;11.23;;;5.70;;
15142;SDS011;7672;50.834;6.286;2022-12-08T13:29:30;8.70;;;5.70;;
15142;SDS011;7672;50.834;6.286;2022-12-08T13:37:12;7.93;;;4.67;;
15142;SDS011;7672;50.834;6.286;2022-12-08T13:39:48;8.17;;;4.47;;
15142;SDS011;7672;50.834;6.286;2022-12-08T13:43:04;8.40;;;4.93;;
15142;SDS011;7672;50.834;6.286;2022-12-08T13:46:16;14.23;;;4.70;;
15142;SDS011;7672;50.834;6.286;2022-12-08T13:49:22;8.00;;;4.97;;
15142;SDS011;7672;50.834;6.286;2022-12-08T13:52:18;7.30;;;5.40;;
15142;SDS011;7672;50.834;6.286;2022-12-08T13:58:45;7.50;;;5.60;;
15142;SDS011;7672;50.834;6.286;2022-12-08T14:01:19;12.03;;;5.10;;
15142;SDS011;7672;50.834;6.286;2022-12-08T14:06:42;10.97;;;4.97;;
15142;SDS011;7672;50.834;6.286;2022-12-08T14:09:20;7.03;;;4.40;;
15142;SDS011;7672;50.834;6.286;2022-12-08T14:11:55;8.10;;;5.20;;
15142;SDS011;7672;50.834;6.286;2022-12-08T14:14:41;7.27;;;4.67;;
15142;SDS011;7672;50.834;6.286;2022-12-08T14:17:28;8.60;;;4.23;;
15142;SDS011;7672;50.834;6.286;2022-12-08T14:19:59;5.97;;;4.30;;
15142;SDS011;7672;50.834;6.286;2022-12-08T14:22:44;6.73;;;4.33;;
15142;SDS011;7672;50.834;6.286;2022-12-08T14:25:15;8.30;;;4.90;;
15142;SDS011;7672;50.834;6.286;2022-12-08T14:27:43;4.67;;;4.17;;
15142;SDS011;7672;50.834;6.286;2022-12-08T14:30:20;8.10;;;4.20;;
15142;SDS011;7672;50.834;6.286;2022-12-08T14:32:55;7.70;;;4.20;;
15142;SDS011;7672;50.834;6.286;2022-12-08T14:38:03;7.93;;;4.67;;
15142;SDS011;7672;50.834;6.286;2022-12-08T14:40:43;8.50;;;4.70;;
15142;SDS011;7672;50.834;6.286;2022-12-08T14:43:15;7.20;;;4.90;;
15142;SDS011;7672;50.834;6.286;2022-12-08T14:48:19;6.43;;;4.93;;
15142;SDS011;7672;50.834;6.286;2022-12-08T14:56:39;11.43;;;5.10;;
15142;SDS011;7672;50.834;6.286;2022-12-08T14:59:18;14.30;;;7.63;;
15142;SDS011;7672;50.834;6.286;2022-12-08T15:01:49;9.90;;;5.47;;
15142;SDS011;7672;50.834;6.286;2022-12-08T15:04:25;8.23;;;5.50;;
15142;SDS011;7672;50.834;6.286;2022-12-08T15:09:42;15.33;;;5.73;;
15142;SDS011;7672;50.834;6.286;2022-12-08T15:15:12;10.27;;;5.67;;
15142;SDS011;7672;50.834;6.286;2022-12-08T15:17:43;10.10;;;6.20;;
15142;SDS011;7672;50.834;6.286;2022-12-08T15:23:20;10.27;;;5.27;;
15142;SDS011;7672;50.834;6.286;2022-12-08T15:25:53;7.40;;;4.83;;
15142;SDS011;7672;50.834;6.286;2022-12-08T15:28:22;7.73;;;5.20;;
15142;SDS011;7672;50.834;6.286;2022-12-08T15:30:55;8.80;;;5.40;;
15142;SDS011;7672;50.834;6.286;2022-12-08T15:33:23;11.30;;;4.97;;
15142;SDS011;7672;50.834;6.286;2022-12-08T15:35:50;14.00;;;5.43;;
15142;SDS011;7672;50.834;6.286;2022-12-08T15:38:19;7.90;;;5.57;;
15142;SDS011;7672;50.834;6.286;2022-12-08T15:40:53;6.80;;;5.00;;
15142;SDS011;7672;50.834;6.286;2022-12-08T15:43:23;6.47;;;4.67;;
15142;SDS011;7672;50.834;6.286;2022-12-08T15:45:51;11.20;;;6.00;;
15142;SDS011;7672;50.834;6.286;2022-12-08T15:48:26;7.67;;;5.63;;
15142;SDS011;7672;50.834;6.286;2022-12-08T15:50:55;9.47;;;5.90;;
15142;SDS011;7672;50.834;6.286;2022-12-08T15:53:23;7.07;;;5.63;;
15142;SDS011;7672;50.834;6.286;2022-12-08T15:55:50;9.37;;;5.83;;
15142;SDS011;7672;50.834;6.286;2022-12-08T15:58:37;10.00;;;6.23;;
15142;SDS011;7672;50.834;6.286;2022-12-08T16:01:21;11.93;;;5.80;;
15142;SDS011;7672;50.834;6.286;2022-12-08T16:03:49;10.97;;;6.47;;
15142;SDS011;7672;50.834;6.286;2022-12-08T16:06:37;8.53;;;6.30;;
15142;SDS011;7672;50.834;6.286;2022-12-08T16:09:29;11.10;;;6.50;;
15142;SDS011;7672;50.834;6.286;2022-12-08T16:12:22;11.90;;;7.50;;
15142;SDS011;7672;50.834;6.286;2022-12-08T16:15:38;13.93;;;6.93;;
15142;SDS011;7672;50.834;6.286;2022-12-08T16:18:26;10.67;;;7.90;;
15142;SDS011;7672;50.834;6.286;2022-12-08T16:20:58;13.83;;;6.73;;
15142;SDS011;7672;50.834;6.286;2022-12-08T16:23:46;10.57;;;7.00;;
15142;SDS011;7672;50.834;6.286;2022-12-08T16:26:14;12.53;;;6.37;;
15142;SDS011;7672;50.834;6.286;2022-12-08T16:29:05;10.97;;;7.00;;
15142;SDS011;7672;50.834;6.286;2022-12-08T16:31:33;11.90;;;8.50;;
15142;SDS011;7672;50.834;6.286;2022-12-08T16:34:00;11.20;;;7.83;;
15142;SDS011;7672;50.834;6.286;2022-12-08T16:36:26;12.30;;;8.57;;
15142;SDS011;7672;50.834;6.286;2022-12-08T16:38:53;12.13;;;8.00;;
15142;SDS011;7672;50.834;6.286;2022-12-08T16:41:20;11.57;;;8.13;;
15142;SDS011;7672;50.834;6.286;2022-12-08T16:44:05;11.20;;;8.47;;
15142;SDS011;7672;50.834;6.286;2022-12-08T16:46:32;12.30;;;7.77;;
15142;SDS011;7672;50.834;6.286;2022-12-08T16:49:01;15.27;;;8.23;;
15142;SDS011;7672;50.834;6.286;2022-12-08T16:51:28;12.23;;;8.27;;
15142;SDS011;7672;50.834;6.286;2022-12-08T16:53:55;10.57;;;8.37;;
15142;SDS011;7672;50.834;6.286;2022-12-08T16:56:24;11.83;;;7.70;;
15142;SDS011;7672;50.834;6.286;2022-12-08T16:58:58;15.40;;;8.37;;
15142;SDS011;7672;50.834;6.286;2022-12-08T17:01:25;12.13;;;8.33;;
15142;SDS011;7672;50.834;6.286;2022-12-08T17:03:52;10.53;;;8.40;;
15142;SDS011;7672;50.834;6.286;2022-12-08T17:06:39;15.60;;;9.63;;
15142;SDS011;7672;50.834;6.286;2022-12-08T17:09:05;19.87;;;10.03;;
15142;SDS011;7672;50.834;6.286;2022-12-08T17:11:32;12.33;;;9.20;;
15142;SDS011;7672;50.834;6.286;2022-12-08T17:14:07;13.77;;;9.43;;
15142;SDS011;7672;50.834;6.286;2022-12-08T17:16:34;14.57;;;9.57;;
15142;SDS011;7672;50.834;6.286;2022-12-08T17:19:01;17.77;;;9.77;;
15142;SDS011;7672;50.834;6.286;2022-12-08T17:21:28;13.37;;;9.10;;
15142;SDS011;7672;50.834;6.286;2022-12-08T17:23:55;12.47;;;9.30;;
15142;SDS011;7672;50.834;6.286;2022-12-08T17:26:22;15.53;;;9.40;;
15142;SDS011;7672;50.834;6.286;2022-12-08T17:28:49;13.30;;;8.80;;